Time;durP1;ratioP1;P1;durP2;ratioP2;P2;SDS_P1;SDS_P2;PMS_P1;PMS_P2;Temp;Humidity;BMP_temperature;BMP_pressure;BME280_temperature;BME280_humidity;BME280_pressure;Samples;Min_cycle;Max_cycle;Signal;HPM_P1;HPM_P2
2023/02/05 00:02:08;;;;;;;;;;;;;;;;;;5029801;28;20012;-64
2023/02/05 00:04:39;;;;;;;;;;;;;;;;;;5018556;28;20058;-63
2023/02/05 00:07:04;;;;;;;;;;;;;;;;;;5031221;28;22016;-64
2023/02/05 00:09:30;;;;;;;;;;;;;;;;;;5032096;28;19916;-64
2023/02/05 00:11:55;;;;;;;;;;;;;;;;;;5029826;28;19924;-64
2023/02/05 00:14:20;;;;;;;;;;;;;;;;;;5033162;28;19975;-64
2023/02/05 00:16:48;;;;;;;;;;;;;;;;;;5031302;28;19932;-64
2023/02/05 00:19:13;;;;;;;;;;;;;;;;;;5032335;28;21184;-64
2023/02/05 00:21:41;;;;;;;;;;;;;;;;;;5030819;28;20368;-64
2023/02/05 00:24:06;;;;;;;;;;;;;;;;;;5029727;28;19921;-64
2023/02/05 00:26:32;;;;;;;;;;;;;;;;;;5032626;28;19920;-64
2023/02/05 00:28:57;;;;;;;;;;;;;;;;;;5025005;28;19920;-64
2023/02/05 00:31:22;;;;;;;;;;;;;;;;;;5026335;28;20072;-65
2023/02/05 00:33:48;;;;;;;;;;;;;;;;;;5030342;28;20386;-64
2023/02/05 00:36:15;;;;;;;;;;;;;;;;;;5030550;28;20143;-64
2023/02/05 00:38:40;;;;;;;;;;;;;;;;;;5022351;28;20367;-64
2023/02/05 00:41:08;;;;;;;;;;;;;;;;;;5015410;28;20406;-64
2023/02/05 00:43:33;;;;;;;;;;;;;;;;;;5031280;28;20411;-65
2023/02/05 00:45:58;;;;;;;;;;;;;;;;;;5031477;28;20007;-65
2023/02/05 00:51:43;;;;;;;;;;;;;;;;;;5036170;28;19928;-64
2023/02/05 00:54:11;;;;;;;;;;;;;;;;;;5033104;28;21714;-65
2023/02/05 00:56:37;;;;;;;;;;;;;;;;;;5037288;28;20043;-65
2023/02/05 00:59:04;;;;;;;;;;;;;;;;;;5027401;28;19936;-64
2023/02/05 01:01:29;;;;;;;;;;;;;;;;;;5029249;28;19928;-64
2023/02/05 01:03:55;;;;;;;;;;;;;;;;;;5033084;28;19920;-64
2023/02/05 01:06:23;;;;;;;;;;;;;;;;;;5032450;28;19921;-64
2023/02/05 01:08:48;;;;;;;;;;;;;;;;;;5036674;28;20299;-64
2023/02/05 01:11:16;;;;;;;;;;;;;;;;;;5035278;28;19985;-63
2023/02/05 01:13:42;;;;;;;;;;;;;;;;;;5023822;28;20468;-65
2023/02/05 01:16:09;;;;;;;;;;;;;;;;;;5021400;28;19924;-65
2023/02/05 01:18:34;;;;;;;;;;;;;;;;;;5024921;28;20130;-65
2023/02/05 01:21:02;;;;;;;;;;;;;;;;;;5033506;28;19921;-63
2023/02/05 01:23:27;;;;;;;;;;;;;;;;;;5031447;28;19920;-64
2023/02/05 01:25:53;;;;;;;;;;;;;;;;;;5035263;28;19921;-64
2023/02/05 01:28:18;;;;;;;;;;;;;;;;;;5031685;28;19920;-64
2023/02/05 01:30:43;;;;;;;;;;;;;;;;;;5031186;28;20897;-66
2023/02/05 01:39:45;;;;;;;;;;;;;;;;;;5031720;28;20441;-64
2023/02/05 01:42:10;;;;;;;;;;;;;;;;;;5032348;28;20352;-64
2023/02/05 01:44:38;;;;;;;;;;;;;;;;;;5035129;28;19920;-64
2023/02/05 01:47:09;;;;;;;;;;;;;;;;;;5029549;28;20023;-64
2023/02/05 01:49:34;;;;;;;;;;;;;;;;;;5034721;28;19943;-64
2023/02/05 01:51:59;;;;;;;;;;;;;;;;;;5031931;28;20734;-64
2023/02/05 01:54:27;;;;;;;;;;;;;;;;;;5022177;28;20535;-64
2023/02/05 01:56:52;;;;;;;;;;;;;;;;;;5030686;28;19925;-65
2023/02/05 01:59:18;;;;;;;;;;;;;;;;;;5031101;28;20444;-65
2023/02/05 02:01:43;;;;;;;;;;;;;;;;;;5029915;28;19923;-65
2023/02/05 02:04:08;;;;;;;;;;;;;;;;;;5031976;28;20039;-65
2023/02/05 02:06:36;;;;;;;;;;;;;;;;;;5034361;28;20386;-65
2023/02/05 02:09:04;;;;;;;;;;;;;;;;;;5028784;28;20251;-65
2023/02/05 02:11:32;;;;;;;;;;;;;;;;;;5024411;28;19927;-64
2023/02/05 02:14:00;;;;;;;;;;;;;;;;;;5033198;28;19974;-65
2023/02/05 02:16:25;;;;;;;;;;;;;;;;;;5021818;28;19960;-63
2023/02/05 02:18:51;;;;;;;;;;;;;;;;;;5033817;28;19956;-64
2023/02/05 02:21:17;;;;;;;;;;;;;;;;;;5022844;28;20024;-64
2023/02/05 02:27:00;;;;;;;;;;;;;;;;;;5032518;28;19987;-65
2023/02/05 02:29:25;;;;;;;;;;;;;;;;;;5016205;28;19920;-65
2023/02/05 02:31:52;;;;;;;;;;;;;;;;;;5028831;28;20046;-65
2023/02/05 02:34:23;;;;;;;;;;;;;;;;;;5032649;28;20484;-65
2023/02/05 02:36:52;;;;;;;;;;;;;;;;;;5029645;28;20416;-64
2023/02/05 02:42:33;;;;;;;;;;;;;;;;;;5031676;28;19940;-64
2023/02/05 02:45:01;;;;;;;;;;;;;;;;;;5033990;28;19921;-64
2023/02/05 02:47:26;;;;;;;;;;;;;;;;;;5030044;28;19920;-64
2023/02/05 02:49:55;;;;;;;;;;;;;;;;;;5046682;28;19924;-65
2023/02/05 02:52:20;;;;;;;;;;;;;;;;;;5032390;28;19930;-64
2023/02/05 02:54:45;;;;;;;;;;;;;;;;;;5029667;28;19928;-64
2023/02/05 02:57:13;;;;;;;;;;;;;;;;;;5021790;28;20489;-65
2023/02/05 02:59:41;;;;;;;;;;;;;;;;;;5013967;28;19999;-65
2023/02/05 03:02:11;;;;;;;;;;;;;;;;;;5030498;28;19935;-65
2023/02/05 03:04:37;;;;;;;;;;;;;;;;;;5015809;28;19924;-65
2023/02/05 03:07:04;;;;;;;;;;;;;;;;;;5031003;28;20726;-64
2023/02/05 03:09:32;;;;;;;;;;;;;;;;;;5022145;28;19916;-65
2023/02/05 03:12:03;;;;;;;;;;;;;;;;;;5028923;28;20045;-65
2023/02/05 03:14:28;;;;;;;;;;;;;;;;;;5023149;28;20398;-65
2023/02/05 03:16:58;;;;;;;;;;;;;;;;;;5031132;28;19927;-65
2023/02/05 03:19:23;;;;;;;;;;;;;;;;;;5028598;28;20376;-64
2023/02/05 03:21:51;;;;;;;;;;;;;;;;;;5030369;28;19920;-65
2023/02/05 03:24:16;;;;;;;;;;;;;;;;;;5026942;28;20391;-65
2023/02/05 03:26:44;;;;;;;;;;;;;;;;;;5032268;28;19971;-66
2023/02/05 03:29:12;;;;;;;;;;;;;;;;;;5029737;28;19943;-66
2023/02/05 03:31:37;;;;;;;;;;;;;;;;;;5029596;28;20012;-66
2023/02/05 03:34:05;;;;;;;;;;;;;;;;;;5046315;28;20571;-66
2023/02/05 03:36:30;;;;;;;;;;;;;;;;;;5032425;28;19920;-64
2023/02/05 03:38:55;;;;;;;;;;;;;;;;;;5033235;28;20514;-65
2023/02/05 03:41:20;;;;;;;;;;;;;;;;;;5029474;28;20012;-65
2023/02/05 03:43:48;;;;;;;;;;;;;;;;;;5015952;28;19955;-65
2023/02/05 03:46:13;;;;;;;;;;;;;;;;;;5017834;28;20826;-65
2023/02/05 03:48:42;;;;;;;;;;;;;;;;;;5032943;28;19924;-63
2023/02/05 03:51:07;;;;;;;;;;;;;;;;;;5016468;28;19928;-65
2023/02/05 03:53:32;;;;;;;;;;;;;;;;;;5030633;28;19946;-65
2023/02/05 03:58:50;;;;;;;;;;;;;;;;;;5034938;28;20015;-67
2023/02/05 04:01:15;;;;;;;;;;;;;;;;;;5028925;28;20401;-67
2023/02/05 04:03:43;;;;;;;;;;;;;;;;;;5030457;28;19940;-66
2023/02/05 04:09:24;;;;;;;;;;;;;;;;;;5032103;28;20534;-66
2023/02/05 04:11:50;;;;;;;;;;;;;;;;;;5032522;28;20023;-65
2023/02/05 04:14:18;;;;;;;;;;;;;;;;;;5019266;28;19970;-66
2023/02/05 04:16:43;;;;;;;;;;;;;;;;;;5030172;28;20386;-67
2023/02/05 04:19:08;;;;;;;;;;;;;;;;;;5033795;28;19937;-67
2023/02/05 04:21:34;;;;;;;;;;;;;;;;;;5035926;28;20464;-67
2023/02/05 04:23:59;;;;;;;;;;;;;;;;;;5034141;28;20797;-67
2023/02/05 04:26:24;;;;;;;;;;;;;;;;;;5023962;28;19963;-66
2023/02/05 04:28:50;;;;;;;;;;;;;;;;;;5031040;28;20563;-68
2023/02/05 04:31:15;;;;;;;;;;;;;;;;;;5032643;28;19920;-68
2023/02/05 04:33:41;;;;;;;;;;;;;;;;;;5024984;28;20522;-68
2023/02/05 04:36:08;;;;;;;;;;;;;;;;;;5021533;28;19970;-69
2023/02/05 04:38:36;;;;;;;;;;;;;;;;;;5037183;28;19956;-68
2023/02/05 04:41:01;;;;;;;;;;;;;;;;;;5034995;28;20057;-69
2023/02/05 04:43:32;;;;;;;;;;;;;;;;;;5035489;28;19917;-69
2023/02/05 04:45:57;;;;;;;;;;;;;;;;;;5032167;28;21408;-69
2023/02/05 04:48:22;;;;;;;;;;;;;;;;;;5033591;28;19923;-69
2023/02/05 04:50:50;;;;;;;;;;;;;;;;;;5036887;28;20085;-67
2023/02/05 04:53:15;;;;;;;;;;;;;;;;;;5024240;28;20431;-68
2023/02/05 04:55:43;;;;;;;;;;;;;;;;;;5029857;28;20390;-68
2023/02/05 04:58:08;;;;;;;;;;;;;;;;;;5023099;28;20364;-68
2023/02/05 05:00:37;;;;;;;;;;;;;;;;;;5032912;28;20023;-67
2023/02/05 05:03:07;;;;;;;;;;;;;;;;;;5017679;28;19921;-66
2023/02/05 05:05:40;;;;;;;;;;;;;;;;;;5035989;28;19921;-67
2023/02/05 05:08:09;;;;;;;;;;;;;;;;;;5020167;28;19920;-67
2023/02/05 05:10:34;;;;;;;;;;;;;;;;;;5032252;28;19947;-67
2023/02/05 05:12:59;;;;;;;;;;;;;;;;;;5030912;28;19947;-66
2023/02/05 05:15:24;;;;;;;;;;;;;;;;;;5029967;28;21909;-67
2023/02/05 05:17:50;;;;;;;;;;;;;;;;;;5035704;28;20287;-67
2023/02/05 05:20:15;;;;;;;;;;;;;;;;;;5027959;28;19917;-66
2023/02/05 05:22:43;;;;;;;;;;;;;;;;;;5033142;28;19921;-66
2023/02/05 05:25:08;;;;;;;;;;;;;;;;;;5020491;28;22144;-67
2023/02/05 05:27:33;;;;;;;;;;;;;;;;;;5019048;28;19924;-65
2023/02/05 05:30:01;;;;;;;;;;;;;;;;;;5029343;28;20510;-66
2023/02/05 05:32:31;;;;;;;;;;;;;;;;;;5033254;28;19924;-67
2023/02/05 05:34:57;;;;;;;;;;;;;;;;;;5035954;28;19959;-67
2023/02/05 05:37:24;;;;;;;;;;;;;;;;;;5020763;28;20880;-65
2023/02/05 05:45:23;;;;;;;;;;;;;;;;;;5035044;28;19928;-66
2023/02/05 05:47:52;;;;;;;;;;;;;;;;;;5032109;28;19944;-66
2023/02/05 05:50:17;;;;;;;;;;;;;;;;;;5035283;28;20551;-65
2023/02/05 05:52:44;;;;;;;;;;;;;;;;;;5033507;28;19936;-65
2023/02/05 05:55:10;;;;;;;;;;;;;;;;;;5034267;28;19921;-64
2023/02/05 05:57:35;;;;;;;;;;;;;;;;;;5017852;28;19937;-67
2023/02/05 06:00:01;;;;;;;;;;;;;;;;;;5026449;28;20388;-68
2023/02/05 06:02:29;;;;;;;;;;;;;;;;;;5029989;28;19920;-66
2023/02/05 06:04:54;;;;;;;;;;;;;;;;;;5032591;28;20429;-66
2023/02/05 06:07:20;;;;;;;;;;;;;;;;;;5032626;28;20357;-67
2023/02/05 06:09:48;;;;;;;;;;;;;;;;;;5032063;28;20359;-66
2023/02/05 06:12:18;;;;;;;;;;;;;;;;;;5028252;28;20858;-63
2023/02/05 06:14:44;;;;;;;;;;;;;;;;;;5033500;28;19916;-64
2023/02/05 06:17:09;;;;;;;;;;;;;;;;;;5027635;28;19932;-66
2023/02/05 06:19:37;;;;;;;;;;;;;;;;;;5031604;28;19928;-66
2023/02/05 06:22:08;;;;;;;;;;;;;;;;;;5019777;28;19927;-65
2023/02/05 06:24:36;;;;;;;;;;;;;;;;;;5019135;28;20023;-66
2023/02/05 06:27:01;;;;;;;;;;;;;;;;;;5018995;28;19956;-67
2023/02/05 06:29:26;;;;;;;;;;;;;;;;;;5027862;28;19917;-66
2023/02/05 06:31:52;;;;;;;;;;;;;;;;;;5030335;28;20895;-66
2023/02/05 06:34:17;;;;;;;;;;;;;;;;;;5021236;28;20441;-66
2023/02/05 06:36:42;;;;;;;;;;;;;;;;;;5032715;28;20372;-65
2023/02/05 06:39:08;;;;;;;;;;;;;;;;;;5030990;28;20403;-66
2023/02/05 06:41:35;;;;;;;;;;;;;;;;;;5031461;28;20011;-66
2023/02/05 06:44:04;;;;;;;;;;;;;;;;;;5030461;28;19931;-66
2023/02/05 06:46:34;;;;;;;;;;;;;;;;;;5029192;28;21494;-62
2023/02/05 06:48:59;;;;;;;;;;;;;;;;;;5037882;28;19921;-66
2023/02/05 06:51:25;;;;;;;;;;;;;;;;;;5027156;28;19921;-64
2023/02/05 06:53:52;;;;;;;;;;;;;;;;;;5019925;28;19920;-66
2023/02/05 06:56:20;;;;;;;;;;;;;;;;;;5033706;28;20556;-66
2023/02/05 06:58:47;;;;;;;;;;;;;;;;;;5033357;28;20261;-65
2023/02/05 07:01:13;;;;;;;;;;;;;;;;;;5031850;28;19917;-65
2023/02/05 07:03:38;;;;;;;;;;;;;;;;;;5034203;28;19931;-64
2023/02/05 07:06:03;;;;;;;;;;;;;;;;;;5028256;28;20105;-64
2023/02/05 07:08:31;;;;;;;;;;;;;;;;;;5028753;28;20381;-65
2023/02/05 07:10:57;;;;;;;;;;;;;;;;;;5028743;28;19920;-66
2023/02/05 07:13:25;;;;;;;;;;;;;;;;;;5024915;28;20342;-66
2023/02/05 07:15:52;;;;;;;;;;;;;;;;;;5026080;28;19916;-65
2023/02/05 07:18:20;;;;;;;;;;;;;;;;;;5025972;28;20508;-63
2023/02/05 07:20:46;;;;;;;;;;;;;;;;;;5029020;28;19927;-65
2023/02/05 07:23:11;;;;;;;;;;;;;;;;;;5031401;28;20531;-66
2023/02/05 07:25:37;;;;;;;;;;;;;;;;;;5030581;28;19917;-65
2023/02/05 07:28:05;;;;;;;;;;;;;;;;;;5031198;28;19943;-66
2023/02/05 07:30:30;;;;;;;;;;;;;;;;;;5044010;28;20340;-67
2023/02/05 07:32:59;;;;;;;;;;;;;;;;;;5030147;28;19917;-66
2023/02/05 07:35:24;;;;;;;;;;;;;;;;;;5032104;28;20007;-66
2023/02/05 07:37:50;;;;;;;;;;;;;;;;;;5029241;28;19958;-65
2023/02/05 07:40:17;;;;;;;;;;;;;;;;;;5019357;28;20024;-64
2023/02/05 07:42:48;;;;;;;;;;;;;;;;;;5032554;28;19928;-65
2023/02/05 07:45:16;;;;;;;;;;;;;;;;;;5016074;28;19921;-65
2023/02/05 07:47:41;;;;;;;;;;;;;;;;;;5019232;28;19917;-66
2023/02/05 07:50:07;;;;;;;;;;;;;;;;;;5030360;28;19990;-67
2023/02/05 07:52:32;;;;;;;;;;;;;;;;;;5029670;28;20269;-64
2023/02/05 07:54:58;;;;;;;;;;;;;;;;;;5036797;28;20346;-64
2023/02/05 07:57:23;;;;;;;;;;;;;;;;;;5034290;28;20514;-64
2023/02/05 07:59:48;;;;;;;;;;;;;;;;;;5036278;28;20019;-65
2023/02/05 08:02:14;;;;;;;;;;;;;;;;;;5030374;28;20302;-66
2023/02/05 08:04:42;;;;;;;;;;;;;;;;;;5024487;28;20063;-65
2023/02/05 08:07:07;;;;;;;;;;;;;;;;;;5022987;28;19995;-66
2023/02/05 08:09:33;;;;;;;;;;;;;;;;;;5035407;28;19917;-64
2023/02/05 08:11:58;;;;;;;;;;;;;;;;;;5035451;28;20354;-65
2023/02/05 08:14:26;;;;;;;;;;;;;;;;;;5033609;28;19920;-65
2023/02/05 08:16:54;;;;;;;;;;;;;;;;;;5018397;28;20002;-64
2023/02/05 08:19:24;;;;;;;;;;;;;;;;;;5032517;28;20047;-64
2023/02/05 08:21:50;;;;;;;;;;;;;;;;;;5021387;28;20006;-66
2023/02/05 08:24:17;;;;;;;;;;;;;;;;;;5019303;28;20432;-65
2023/02/05 08:26:43;;;;;;;;;;;;;;;;;;5047128;28;19924;-64
2023/02/05 08:29:08;;;;;;;;;;;;;;;;;;5031169;28;20157;-65
2023/02/05 08:31:36;;;;;;;;;;;;;;;;;;5027750;28;19917;-64
2023/02/05 08:34:04;;;;;;;;;;;;;;;;;;5033810;28;19920;-65
2023/02/05 08:36:29;;;;;;;;;;;;;;;;;;5019216;28;20296;-64
2023/02/05 08:38:54;;;;;;;;;;;;;;;;;;5047903;28;20015;-65
2023/02/05 08:41:23;;;;;;;;;;;;;;;;;;5018307;28;19916;-64
2023/02/05 08:43:51;;;;;;;;;;;;;;;;;;5034215;28;19920;-65
2023/02/05 08:46:17;;;;;;;;;;;;;;;;;;5034208;28;20367;-65
2023/02/05 08:48:47;;;;;;;;;;;;;;;;;;5020406;28;19920;-63
2023/02/05 08:51:13;;;;;;;;;;;;;;;;;;5019953;28;20156;-65
2023/02/05 08:53:41;;;;;;;;;;;;;;;;;;5029440;28;19950;-64
2023/02/05 08:59:26;;;;;;;;;;;;;;;;;;5030999;28;19966;-64
2023/02/05 09:01:51;;;;;;;;;;;;;;;;;;5032012;28;21385;-63
2023/02/05 09:04:17;;;;;;;;;;;;;;;;;;5019645;28;20330;-64
2023/02/05 09:06:44;;;;;;;;;;;;;;;;;;5034325;28;19927;-66
2023/02/05 09:09:12;;;;;;;;;;;;;;;;;;5036626;28;20501;-65
2023/02/05 09:11:40;;;;;;;;;;;;;;;;;;5039757;28;19973;-66
2023/02/05 09:14:06;;;;;;;;;;;;;;;;;;5034055;28;19923;-66
2023/02/05 09:16:34;;;;;;;;;;;;;;;;;;5032469;28;21847;-66
2023/02/05 09:19:02;;;;;;;;;;;;;;;;;;5034348;28;19931;-66
2023/02/05 09:21:27;;;;;;;;;;;;;;;;;;5034504;28;20015;-65
2023/02/05 09:24:07;;;;;;;;;;;;;;;;;;5034490;28;20502;-66
2023/02/05 09:26:33;;;;;;;;;;;;;;;;;;5027307;28;19993;-65
2023/02/05 09:28:58;;;;;;;;;;;;;;;;;;5033956;28;20648;-65
2023/02/05 09:31:24;;;;;;;;;;;;;;;;;;5031329;28;19912;-65
2023/02/05 09:33:49;;;;;;;;;;;;;;;;;;5032943;28;19927;-66
2023/02/05 09:36:15;;;;;;;;;;;;;;;;;;5018401;28;19924;-66
2023/02/05 09:38:40;;;;;;;;;;;;;;;;;;5020556;28;20054;-66
2023/02/05 09:41:05;;;;;;;;;;;;;;;;;;5034428;28;19946;-66
2023/02/05 09:43:31;;;;;;;;;;;;;;;;;;5022190;28;19920;-66
2023/02/05 09:45:56;;;;;;;;;;;;;;;;;;5023045;28;20387;-67
2023/02/05 09:48:22;;;;;;;;;;;;;;;;;;5032146;28;19917;-66
2023/02/05 09:50:47;;;;;;;;;;;;;;;;;;5032581;28;19924;-67
2023/02/05 09:53:13;;;;;;;;;;;;;;;;;;5035293;28;19929;-66
2023/02/05 09:55:38;;;;;;;;;;;;;;;;;;5022260;28;19961;-66
2023/02/05 09:58:05;;;;;;;;;;;;;;;;;;5032981;28;20641;-67
2023/02/05 10:00:30;;;;;;;;;;;;;;;;;;5027388;28;19920;-67
2023/02/05 10:02:55;;;;;;;;;;;;;;;;;;5028819;28;19916;-66
2023/02/05 10:05:21;;;;;;;;;;;;;;;;;;5030809;28;20295;-66
2023/02/05 10:07:46;;;;;;;;;;;;;;;;;;5019449;28;19974;-67
2023/02/05 10:10:24;;;;;;;;;;;;;;;;;;5037844;28;20275;-66
2023/02/05 10:12:49;;;;;;;;;;;;;;;;;;5028259;28;19925;-67
2023/02/05 10:15:15;;;;;;;;;;;;;;;;;;5026339;28;20002;-66
2023/02/05 10:17:40;;;;;;;;;;;;;;;;;;5026951;28;20065;-62
2023/02/05 10:20:05;;;;;;;;;;;;;;;;;;5028628;28;20187;-65
2023/02/05 10:22:31;;;;;;;;;;;;;;;;;;5025984;28;20344;-66
2023/02/05 10:24:56;;;;;;;;;;;;;;;;;;5036062;28;19917;-66
2023/02/05 10:27:22;;;;;;;;;;;;;;;;;;5016801;28;19982;-67
2023/02/05 10:29:47;;;;;;;;;;;;;;;;;;5032886;28;19916;-67
2023/02/05 10:32:14;;;;;;;;;;;;;;;;;;5027213;28;19920;-66
2023/02/05 10:34:39;;;;;;;;;;;;;;;;;;5026974;28;20028;-67
2023/02/05 10:37:04;;;;;;;;;;;;;;;;;;5026878;28;19925;-66
2023/02/05 10:39:29;;;;;;;;;;;;;;;;;;5026441;28;19920;-66
2023/02/05 10:41:55;;;;;;;;;;;;;;;;;;5030185;28;19927;-67
2023/02/05 10:44:20;;;;;;;;;;;;;;;;;;5029185;28;19996;-67
2023/02/05 10:46:50;;;;;;;;;;;;;;;;;;5026931;28;20474;-68
2023/02/05 10:49:15;;;;;;;;;;;;;;;;;;5030480;28;19916;-69
2023/02/05 10:51:41;;;;;;;;;;;;;;;;;;5029491;28;19920;-70
2023/02/05 10:54:11;;;;;;;;;;;;;;;;;;5033906;28;19934;-69
2023/02/05 10:56:36;;;;;;;;;;;;;;;;;;5026987;28;19982;-70
2023/02/05 10:59:03;;;;;;;;;;;;;;;;;;5022917;28;20264;-69
2023/02/05 11:01:28;;;;;;;;;;;;;;;;;;5027294;28;20356;-69
2023/02/05 11:03:54;;;;;;;;;;;;;;;;;;5030136;28;20289;-68
2023/02/05 11:06:19;;;;;;;;;;;;;;;;;;5043577;28;20238;-69
2023/02/05 11:08:47;;;;;;;;;;;;;;;;;;5024859;28;20055;-68
2023/02/05 11:11:13;;;;;;;;;;;;;;;;;;5029679;28;19920;-69
2023/02/05 11:13:42;;;;;;;;;;;;;;;;;;5029711;28;20933;-69
2023/02/05 11:16:07;;;;;;;;;;;;;;;;;;5026802;28;22189;-69
2023/02/05 11:18:33;;;;;;;;;;;;;;;;;;5027576;28;19921;-67
2023/02/05 11:21:00;;;;;;;;;;;;;;;;;;5031201;28;19939;-71
2023/02/05 11:23:26;;;;;;;;;;;;;;;;;;5017672;28;20071;-71
2023/02/05 11:25:51;;;;;;;;;;;;;;;;;;5027781;28;19921;-68
2023/02/05 11:28:17;;;;;;;;;;;;;;;;;;5026494;28;19916;-70
2023/02/05 11:30:42;;;;;;;;;;;;;;;;;;5024780;28;19927;-69
2023/02/05 11:33:07;;;;;;;;;;;;;;;;;;5028697;28;20276;-66
2023/02/05 11:35:33;;;;;;;;;;;;;;;;;;5029557;28;19921;-67
2023/02/05 11:38:03;;;;;;;;;;;;;;;;;;5018326;28;20380;-66
2023/02/05 11:40:29;;;;;;;;;;;;;;;;;;5017036;28;19997;-68
2023/02/05 11:42:55;;;;;;;;;;;;;;;;;;5012309;28;19928;-66
2023/02/05 11:45:21;;;;;;;;;;;;;;;;;;5027638;28;20253;-67
2023/02/05 11:47:49;;;;;;;;;;;;;;;;;;5025456;28;19916;-66
2023/02/05 11:50:14;;;;;;;;;;;;;;;;;;5029136;28;19917;-66
2023/02/05 11:55:24;;;;;;;;;;;;;;;;;;5030779;28;19921;-65
2023/02/05 11:57:52;;;;;;;;;;;;;;;;;;5031477;28;20355;-65
2023/02/05 12:00:18;;;;;;;;;;;;;;;;;;5009652;28;19916;-65
2023/02/05 12:02:50;;;;;;;;;;;;;;;;;;5011777;28;20006;-63
2023/02/05 12:05:16;;;;;;;;;;;;;;;;;;5028910;28;19960;-63
2023/02/05 12:07:44;;;;;;;;;;;;;;;;;;5026500;28;19921;-66
2023/02/05 12:10:11;;;;;;;;;;;;;;;;;;5027596;28;19933;-64
2023/02/05 12:12:37;;;;;;;;;;;;;;;;;;5028073;28;20074;-64
2023/02/05 12:15:07;;;;;;;;;;;;;;;;;;5014597;28;20388;-64
2023/02/05 12:17:35;;;;;;;;;;;;;;;;;;5014864;28;19955;-65
2023/02/05 12:20:01;;;;;;;;;;;;;;;;;;5026304;28;19916;-64
2023/02/05 12:22:26;;;;;;;;;;;;;;;;;;5031192;28;20001;-64
2023/02/05 12:24:51;;;;;;;;;;;;;;;;;;5017092;28;20633;-64
2023/02/05 12:27:16;;;;;;;;;;;;;;;;;;5032104;28;19974;-63
2023/02/05 12:29:42;;;;;;;;;;;;;;;;;;5024747;28;19916;-64
2023/02/05 12:35:04;;;;;;;;;;;;;;;;;;5030271;28;20421;-63
2023/02/05 12:37:29;;;;;;;;;;;;;;;;;;5022857;28;19929;-64
2023/02/05 12:39:55;;;;;;;;;;;;;;;;;;5026011;28;20016;-64
2023/02/05 12:42:20;;;;;;;;;;;;;;;;;;5028896;28;20597;-64
2023/02/05 12:44:45;;;;;;;;;;;;;;;;;;5031090;28;20022;-62
2023/02/05 12:47:11;;;;;;;;;;;;;;;;;;5026889;28;20665;-64
2023/02/05 12:49:36;;;;;;;;;;;;;;;;;;5032873;28;20695;-63
2023/02/05 12:52:01;;;;;;;;;;;;;;;;;;5028063;28;19928;-62
2023/02/05 12:54:26;;;;;;;;;;;;;;;;;;5034622;28;19920;-63
2023/02/05 12:56:52;;;;;;;;;;;;;;;;;;5033954;28;20074;-63
2023/02/05 12:59:17;;;;;;;;;;;;;;;;;;5015349;28;19920;-63
2023/02/05 13:01:42;;;;;;;;;;;;;;;;;;5032192;28;19916;-64
2023/02/05 13:04:08;;;;;;;;;;;;;;;;;;5024218;28;20376;-62
2023/02/05 13:06:33;;;;;;;;;;;;;;;;;;5022058;28;19968;-63
2023/02/05 13:08:58;;;;;;;;;;;;;;;;;;5032974;28;19924;-62
2023/02/05 13:11:23;;;;;;;;;;;;;;;;;;5031369;28;20032;-64
2023/02/05 13:13:51;;;;;;;;;;;;;;;;;;5033953;28;19921;-64
2023/02/05 13:16:16;;;;;;;;;;;;;;;;;;5034484;28;20319;-64
2023/02/05 13:18:42;;;;;;;;;;;;;;;;;;5035068;28;20472;-65
2023/02/05 13:29:22;;;;;;;;;;;;;;;;;;5030329;28;20014;-64
2023/02/05 13:31:48;;;;;;;;;;;;;;;;;;5030878;28;19920;-65
2023/02/05 13:34:16;;;;;;;;;;;;;;;;;;5032618;28;20002;-63
2023/02/05 13:36:46;;;;;;;;;;;;;;;;;;5030050;28;19931;-63
2023/02/05 13:39:12;;;;;;;;;;;;;;;;;;5031582;28;19963;-64
2023/02/05 13:41:40;;;;;;;;;;;;;;;;;;5030320;28;19929;-65
2023/02/05 13:44:05;;;;;;;;;;;;;;;;;;5017024;28;19966;-63
2023/02/05 13:46:30;;;;;;;;;;;;;;;;;;5021054;28;20282;-65
2023/02/05 13:48:56;;;;;;;;;;;;;;;;;;5030070;28;20010;-63
2023/02/05 13:51:23;;;;;;;;;;;;;;;;;;5016167;28;20135;-63
2023/02/05 13:53:51;;;;;;;;;;;;;;;;;;5032287;28;20224;-64
2023/02/05 13:56:19;;;;;;;;;;;;;;;;;;5012950;28;19920;-66
2023/02/05 13:58:44;;;;;;;;;;;;;;;;;;5035171;28;20445;-63
2023/02/05 14:01:12;;;;;;;;;;;;;;;;;;5025399;28;20468;-64
2023/02/05 14:03:38;;;;;;;;;;;;;;;;;;5034397;28;19920;-64
2023/02/05 14:06:03;;;;;;;;;;;;;;;;;;5029653;28;19921;-64
2023/02/05 14:08:31;;;;;;;;;;;;;;;;;;5020646;28;19931;-63
2023/02/05 14:10:58;;;;;;;;;;;;;;;;;;5034505;28;20374;-64
2023/02/05 14:13:24;;;;;;;;;;;;;;;;;;5035325;28;19920;-63
2023/02/05 14:15:52;;;;;;;;;;;;;;;;;;5033118;28;20194;-64
2023/02/05 14:18:18;;;;;;;;;;;;;;;;;;5031032;28;20006;-64
2023/02/05 14:20:44;;;;;;;;;;;;;;;;;;5034748;28;19920;-64
2023/02/05 14:23:09;;;;;;;;;;;;;;;;;;5016447;28;19921;-63
2023/02/05 14:25:38;;;;;;;;;;;;;;;;;;5027874;28;20409;-64
2023/02/05 14:28:05;;;;;;;;;;;;;;;;;;5018605;28;19921;-64
2023/02/05 14:30:37;;;;;;;;;;;;;;;;;;5027290;28;20156;-65
2023/02/05 14:33:04;;;;;;;;;;;;;;;;;;5018990;28;19920;-62
2023/02/05 14:35:37;;;;;;;;;;;;;;;;;;5030366;28;19928;-64
2023/02/05 14:38:02;;;;;;;;;;;;;;;;;;5026288;28;19920;-64
2023/02/05 14:40:28;;;;;;;;;;;;;;;;;;5032063;28;19967;-65
2023/02/05 14:42:53;;;;;;;;;;;;;;;;;;5031007;28;19927;-64
2023/02/05 14:45:26;;;;;;;;;;;;;;;;;;5033062;28;19935;-64
2023/02/05 14:47:54;;;;;;;;;;;;;;;;;;5032754;28;19981;-65
2023/02/05 14:50:19;;;;;;;;;;;;;;;;;;5032918;28;20528;-65
2023/02/05 14:52:47;;;;;;;;;;;;;;;;;;5018979;28;20280;-65
2023/02/05 14:55:15;;;;;;;;;;;;;;;;;;5015431;28;19948;-65
2023/02/05 14:57:40;;;;;;;;;;;;;;;;;;5030430;28;21409;-64
2023/02/05 15:00:08;;;;;;;;;;;;;;;;;;5017220;28;19916;-64
2023/02/05 15:02:34;;;;;;;;;;;;;;;;;;5017684;28;20257;-65
2023/02/05 15:04:59;;;;;;;;;;;;;;;;;;5015595;28;19928;-64
2023/02/05 15:07:24;;;;;;;;;;;;;;;;;;5042967;28;19959;-64
2023/02/05 15:09:49;;;;;;;;;;;;;;;;;;5021464;28;19921;-65
2023/02/05 15:12:15;;;;;;;;;;;;;;;;;;5032111;28;19920;-64
2023/02/05 15:14:42;;;;;;;;;;;;;;;;;;5004375;28;20346;-63
2023/02/05 15:17:16;;;;;;;;;;;;;;;;;;5005608;28;19997;-64
2023/02/05 15:19:44;;;;;;;;;;;;;;;;;;5029232;28;20268;-65
2023/02/05 15:22:09;;;;;;;;;;;;;;;;;;5029251;28;20515;-65
2023/02/05 15:24:34;;;;;;;;;;;;;;;;;;5029685;28;20343;-64
2023/02/05 15:27:00;;;;;;;;;;;;;;;;;;5032239;28;20012;-64
2023/02/05 15:29:25;;;;;;;;;;;;;;;;;;5030916;28;20071;-64
2023/02/05 15:31:50;;;;;;;;;;;;;;;;;;5017138;28;20398;-64
2023/02/05 15:34:18;;;;;;;;;;;;;;;;;;5028227;28;20409;-66
2023/02/05 15:36:43;;;;;;;;;;;;;;;;;;5029538;28;19932;-64
2023/02/05 15:39:09;;;;;;;;;;;;;;;;;;5031652;28;20379;-64
2023/02/05 15:41:37;;;;;;;;;;;;;;;;;;5016490;28;20565;-65
2023/02/05 15:44:05;;;;;;;;;;;;;;;;;;5030995;28;19927;-65
2023/02/05 15:46:35;;;;;;;;;;;;;;;;;;5017360;28;20590;-65
2023/02/05 15:49:01;;;;;;;;;;;;;;;;;;5030880;28;20006;-64
2023/02/05 15:51:26;;;;;;;;;;;;;;;;;;5017790;28;20648;-63
2023/02/05 15:53:54;;;;;;;;;;;;;;;;;;5011650;28;20393;-64
2023/02/05 15:56:22;;;;;;;;;;;;;;;;;;5031703;28;19920;-64
2023/02/05 15:58:47;;;;;;;;;;;;;;;;;;5019572;28;19931;-64
2023/02/05 16:01:12;;;;;;;;;;;;;;;;;;5024964;28;20497;-65
2023/02/05 16:03:40;;;;;;;;;;;;;;;;;;4999962;28;20033;-64
2023/02/05 16:06:05;;;;;;;;;;;;;;;;;;5013034;28;20340;-65
2023/02/05 16:08:31;;;;;;;;;;;;;;;;;;5028695;28;20395;-65
2023/02/05 16:11:04;;;;;;;;;;;;;;;;;;5027651;28;19920;-64
2023/02/05 16:13:29;;;;;;;;;;;;;;;;;;5029867;28;19924;-64
2023/02/05 16:15:54;;;;;;;;;;;;;;;;;;5033786;28;19955;-64
2023/02/05 16:18:23;;;;;;;;;;;;;;;;;;5028684;28;19933;-65
2023/02/05 16:20:48;;;;;;;;;;;;;;;;;;5026795;28;20022;-66
2023/02/05 16:23:13;;;;;;;;;;;;;;;;;;5029040;28;19970;-65
2023/02/05 16:25:38;;;;;;;;;;;;;;;;;;5030236;28;19924;-64
2023/02/05 16:28:04;;;;;;;;;;;;;;;;;;5034720;28;20290;-65
2023/02/05 16:30:29;;;;;;;;;;;;;;;;;;5032313;28;20356;-64
2023/02/05 16:32:54;;;;;;;;;;;;;;;;;;5034017;28;20379;-65
2023/02/05 16:35:19;;;;;;;;;;;;;;;;;;5029900;28;20364;-65
2023/02/05 16:37:47;;;;;;;;;;;;;;;;;;5033148;28;19927;-65
2023/02/05 16:43:29;;;;;;;;;;;;;;;;;;5034449;28;19971;-66
2023/02/05 16:45:57;;;;;;;;;;;;;;;;;;5036257;28;20355;-64
2023/02/05 16:48:25;;;;;;;;;;;;;;;;;;5023581;28;19986;-65
2023/02/05 16:50:55;;;;;;;;;;;;;;;;;;5031389;28;19988;-64
2023/02/05 16:53:23;;;;;;;;;;;;;;;;;;5021342;28;19928;-64
2023/02/05 16:55:51;;;;;;;;;;;;;;;;;;5035336;28;20005;-64
2023/02/05 16:58:19;;;;;;;;;;;;;;;;;;5021719;28;19925;-63
2023/02/05 17:00:44;;;;;;;;;;;;;;;;;;5024089;28;19928;-65
2023/02/05 17:03:09;;;;;;;;;;;;;;;;;;5021230;28;20379;-65
2023/02/05 17:05:37;;;;;;;;;;;;;;;;;;5022415;28;19920;-65
2023/02/05 17:08:03;;;;;;;;;;;;;;;;;;5033065;28;20459;-65
2023/02/05 17:10:28;;;;;;;;;;;;;;;;;;5034851;28;19956;-64
2023/02/05 17:12:56;;;;;;;;;;;;;;;;;;5034123;28;19920;-66
2023/02/05 17:15:24;;;;;;;;;;;;;;;;;;5031736;28;19928;-66
2023/02/05 17:17:49;;;;;;;;;;;;;;;;;;5030261;28;20459;-64
2023/02/05 17:20:15;;;;;;;;;;;;;;;;;;5034627;28;20019;-65
2023/02/05 17:22:40;;;;;;;;;;;;;;;;;;5033016;28;19916;-65
2023/02/05 17:25:05;;;;;;;;;;;;;;;;;;5025581;28;19928;-65
2023/02/05 17:27:31;;;;;;;;;;;;;;;;;;5048458;28;19917;-65
2023/02/05 17:29:56;;;;;;;;;;;;;;;;;;5021071;28;20401;-64